Latest Weather Observations for Portland Harbour

IDV60801

Issued at 5:02 pm EDT Tuesday 28 March 2017 (issued every 30 minutes, with the page automatically refreshed every 10 minutes)

About weather observations | Map of weather stations | Latest weather observations for VIC | Other Formats
Station Details ID: 090192 Name: PORTLAND NTC AWS Lat: -38.34 Lon: 141.61 Height: 0.0 m
Data from the previous 72 hours. | See also: Recent months for locations in Victoria
Date/Time
EDT
Temp
°C
App
Temp
°C
Dew
Point
°C
Rel
Hum
%
Delta-T
°C
Wind Press
QNH
hPa
Press
MSL
hPa
Rain since
9am
mm
Dir  Spd
km/h
Gust
km/h
Spd
kts
Gust
kts
28/05:00pm 19.5 - - - - W 30 43 16 23 1010.7 1010.7 -
28/04:30pm 19.4 - - - - W 28 41 15 22 1010.9 1010.9 -
28/04:00pm 18.9 - - - - W 33 46 18 25 1011.0 1011.0 -
28/03:30pm 19.9 - - - - W 28 44 15 24 1011.1 1011.1 -
28/03:00pm 19.6 - - - - W 33 44 18 24 1011.3 1011.3 -
28/02:30pm 19.4 - - - - W 33 48 18 26 1011.6 1011.6 -
28/02:16pm 19.3 - - - - WNW 33 52 18 28 1011.9 1011.9 -
28/02:00pm 18.8 - - - - W 33 46 18 25 1011.9 1011.9 -
28/01:30pm 19.0 - - - - WNW 33 48 18 26 1012.1 1012.1 -
28/01:00pm 18.9 - - - - W 33 52 18 28 1012.6 1012.6 -
28/12:56pm 19.2 - - - - WNW 32 52 17 28 1012.6 1012.6 -
28/12:30pm 18.3 - - - - WNW 30 43 16 23 1012.8 1012.8 -
28/12:00pm 18.0 - - - - WNW 24 39 13 21 1013.1 1013.1 -
28/11:30am 17.6 - - - - WNW 26 35 14 19 1013.1 1013.1 -
28/11:00am 17.6 - - - - W 24 37 13 20 1013.4 1013.4 -
28/10:30am 16.8 - - - - NW 20 28 11 15 1013.4 1013.4 -
28/10:00am 15.8 - - - - NNW 17 22 9 12 1013.5 1013.5 -
28/09:30am 14.7 - - - - NNW 15 19 8 10 1013.4 1013.4 -
28/09:00am 13.9 - - - - NNW 17 22 9 12 1013.3 1013.3 -
28/08:30am 13.8 - - - - NNW 19 22 10 12 1013.1 1013.1 -
28/08:00am 13.6 - - - - NNW 20 22 11 12 1012.9 1012.9 -
28/07:30am 14.0 - - - - NNW 19 20 10 11 1012.7 1012.7 -
28/07:00am 14.1 - - - - NNW 17 20 9 11 1012.6 1012.6 -
28/06:30am 13.8 - - - - NNW 15 19 8 10 1012.4 1012.4 -
28/06:00am 13.5 - - - - NNW 13 17 7 9 1012.4 1012.4 -
28/05:30am 13.7 - - - - NNW 15 20 8 11 1012.3 1012.3 -
28/05:00am 14.1 - - - - NNW 13 19 7 10 1012.2 1012.2 -
28/04:30am 13.8 - - - - NNW 9 13 5 7 1012.2 1012.2 -
28/04:00am 13.9 - - - - NNW 11 17 6 9 1012.3 1012.3 -
28/03:30am 13.9 - - - - NNW 15 19 8 10 1012.4 1012.4 -
28/03:00am 13.9 - - - - NW 9 17 5 9 1012.5 1012.5 -
28/02:30am 13.7 - - - - NNW 13 17 7 9 1012.5 1012.5 -
28/02:00am 14.0 - - - - NNW 13 19 7 10 1012.7 1012.7 -
28/01:30am 14.0 - - - - NNW 15 22 8 12 1012.9 1012.9 -
28/01:00am 14.2 - - - - NNW 15 20 8 11 1012.7 1012.7 -
28/12:30am 14.4 - - - - NNW 17 20 9 11 1012.7 1012.7 -
28/12:00am 14.7 - - - - NNW 17 20 9 11 1012.6 1012.6 -
 
Date/Time
EDT
Temp
°C
App
Temp
°C
Dew
Point
°C
Rel
Hum
%
Delta-T
°C
Wind Press
QNH
hPa
Press
MSL
hPa
Rain since
9am
mm
Dir  Spd
km/h
Gust
km/h
Spd
kts
Gust
kts
27/11:30pm 14.8 - - - - NNW 11 17 6 9 1012.8 1012.8 -
27/11:00pm 15.2 - - - - NNW 11 20 6 11 1012.8 1012.8 -
27/10:30pm 15.7 - - - - NW 11 20 6 11 1012.8 1012.8 -
27/10:00pm 16.1 - - - - NW 11 17 6 9 1012.4 1012.4 -
27/09:30pm 16.3 - - - - WNW 15 22 8 12 1012.6 1012.6 -
27/09:00pm 16.5 - - - - W 15 24 8 13 1012.2 1012.2 -
27/08:30pm 16.6 - - - - W 17 28 9 15 1011.8 1011.8 -
27/08:00pm 16.9 - - - - W 22 32 12 17 1011.4 1011.4 -
27/07:30pm 17.3 - - - - WNW 24 33 13 18 1011.0 1011.0 -
27/07:00pm 17.7 - - - - W 26 43 14 23 1010.6 1010.6 -
27/06:30pm 18.2 - - - - WNW 32 50 17 27 1010.2 1010.2 -
27/06:03pm 18.6 - - - - W 33 52 18 28 1009.9 1009.9 -
27/06:00pm 18.6 - - - - W 37 52 20 28 1009.9 1009.9 -
27/05:30pm 18.5 - - - - WNW 41 59 22 32 1009.9 1009.9 -
27/05:00pm 19.2 - - - - W 39 61 21 33 1009.8 1009.8 -
27/04:30pm 19.3 - - - - WNW 43 61 23 33 1009.6 1009.6 -
27/04:00pm 19.2 - - - - WNW 39 59 21 32 1009.4 1009.4 -
27/03:31pm 19.4 - - - - W 43 61 23 33 1009.4 1009.4 -
27/03:30pm 19.2 - - - - W 44 61 24 33 1009.2 1009.2 -
27/03:01pm 19.4 - - - - WNW 43 65 23 35 1008.9 1008.9 -
27/03:00pm 19.4 - - - - W 43 59 23 32 1008.8 1008.8 -
27/02:30pm 19.1 - - - - WNW 43 65 23 35 1009.1 1009.1 -
27/02:09pm 18.6 - - - - WNW 33 56 18 30 1009.2 1009.2 -
27/02:00pm 18.3 - - - - WNW 32 46 17 25 1009.2 1009.2 -
27/01:30pm 17.1 - - - - NW 28 43 15 23 1009.4 1009.4 -
27/01:00pm 16.6 - - - - WNW 20 32 11 17 1009.1 1009.1 -
27/12:30pm 15.7 - - - - NW 20 30 11 16 1008.6 1008.6 -
27/12:00pm 15.7 - - - - WNW 24 33 13 18 1009.2 1009.2 -
27/11:30am 16.4 - - - - W 28 44 15 24 1008.6 1008.6 -
27/11:00am 17.8 - - - - WSW 33 56 18 30 1008.4 1008.4 -
27/10:30am 18.6 - - - - WSW 35 61 19 33 1007.2 1007.2 -
27/10:00am 18.9 - - - - W 33 56 18 30 1005.4 1005.4 -
27/09:30am 19.5 - - - - W 39 57 21 31 1004.3 1004.3 -
27/09:18am 19.8 - - - - W 33 54 18 29 1004.1 1004.1 -
27/09:00am 19.8 - - - - W 33 50 18 27 1003.6 1003.6 -
27/08:30am 20.2 - - - - W 35 57 19 31 1002.8 1002.8 -
27/08:00am 21.8 - - - - W 43 61 23 33 1001.8 1001.8 -
27/07:54am 23.0 - - - - WNW 35 59 19 32 1001.3 1001.3 -
27/07:33am 28.2 - - - - NW 30 48 16 26 1000.6 1000.6 -
27/07:30am 28.6 - - - - NW 33 48 18 26 1000.4 1000.4 -
27/07:12am 28.2 - - - - NNW 33 54 18 29 999.9 999.9 -
27/07:00am 28.4 - - - - NNW 39 52 21 28 999.5 999.5 -
27/06:53am 27.8 - - - - NNW 41 59 22 32 999.3 999.3 -
27/06:30am 27.5 - - - - N 44 56 24 30 998.9 998.9 -
27/06:00am 26.4 - - - - N 44 57 24 31 998.7 998.7 -
27/05:30am 26.9 - - - - N 46 59 25 32 999.3 999.3 -
27/05:00am 26.7 - - - - N 44 57 24 31 999.7 999.7 -
27/04:30am 26.4 - - - - N 39 52 21 28 1000.4 1000.4 -
27/04:00am 25.7 - - - - N 37 48 20 26 1000.8 1000.8 -
27/03:30am 25.0 - - - - N 35 44 19 24 1001.7 1001.7 -
27/03:00am 25.4 - - - - N 33 48 18 26 1002.0 1002.0 -
27/02:30am 24.9 - - - - N 33 44 18 24 1002.9 1002.9 -
27/02:00am 24.9 - - - - N 32 39 17 21 1003.5 1003.5 -
27/01:30am 24.8 - - - - N 26 33 14 18 1004.3 1004.3 -
27/01:00am 24.2 - - - - N 24 33 13 18 1004.9 1004.9 -
27/12:30am 24.7 - - - - N 20 28 11 15 1005.4 1005.4 -
27/12:00am 23.5 - - - - NNE 17 20 9 11 1005.6 1005.6 -
 
Date/Time
EDT
Temp
°C
App
Temp
°C
Dew
Point
°C
Rel
Hum
%
Delta-T
°C
Wind Press
QNH
hPa
Press
MSL
hPa
Rain since
9am
mm
Dir  Spd
km/h
Gust
km/h
Spd
kts
Gust
kts
26/11:30pm 22.1 - - - - NNE 11 17 6 9 1006.2 1006.2 -
26/11:00pm 20.0 - - - - ENE 6 6 3 3 1007.2 1007.2 -
26/10:30pm 19.8 - - - - CALM 0 2 0 1 1007.9 1007.9 -
26/10:00pm 19.6 - - - - ENE 2 4 1 2 1008.2 1008.2 -
26/09:30pm 19.4 - - - - NNE 6 6 3 3 1008.5 1008.5 -
26/09:00pm 19.2 - - - - NE 6 9 3 5 1008.4 1008.4 -
26/08:30pm 18.8 - - - - ENE 7 13 4 7 1008.4 1008.4 -
26/08:00pm 18.6 - - - - ENE 9 13 5 7 1008.6 1008.6 -
26/07:30pm 18.8 - - - - ENE 9 13 5 7 1008.9 1008.9 -
26/07:00pm 18.8 - - - - E 7 11 4 6 1009.1 1009.1 -
26/06:30pm 19.0 - - - - E 11 17 6 9 1009.3 1009.3 -
26/06:00pm 19.0 - - - - E 15 19 8 10 1009.4 1009.4 -
26/05:30pm 18.8 - - - - E 13 19 7 10 1009.6 1009.6 -
26/05:00pm 19.4 - - - - E 15 20 8 11 1009.9 1009.9 -
26/04:30pm 19.3 - - - - E 13 20 7 11 1010.3 1010.3 -
26/04:00pm 19.8 - - - - ESE 9 15 5 8 1010.9 1010.9 -
26/03:30pm 19.5 - - - - ESE 6 11 3 6 1011.5 1011.5 -
26/03:00pm 19.2 - - - - ESE 6 11 3 6 1011.9 1011.9 -
26/02:30pm 18.9 - - - - E 11 17 6 9 1012.1 1012.1 -
26/02:00pm 19.2 - - - - ESE 7 15 4 8 1012.6 1012.6 -
26/01:30pm 19.1 - - - - ESE 7 15 4 8 1013.2 1013.2 -
26/01:00pm 18.9 - - - - E 11 19 6 10 1013.7 1013.7 -
26/12:30pm 18.7 - - - - E 13 20 7 11 1013.8 1013.8 -
26/12:00pm 18.6 - - - - E 11 17 6 9 1014.1 1014.1 -
26/11:30am 18.1 - - - - E 15 17 8 9 1014.6 1014.6 -
26/11:00am 17.9 - - - - ENE 17 20 9 11 1014.5 1014.5 -
26/10:30am 18.0 - - - - ENE 13 15 7 8 1014.8 1014.8 -
26/10:00am 18.4 - - - - E 6 11 3 6 1015.0 1015.0 -
26/09:30am 18.1 - - - - ENE 9 13 5 7 1015.2 1015.2 -
26/09:00am 18.4 - - - - ESE 6 11 3 6 1015.1 1015.1 -
26/08:30am 18.5 - - - - ESE 4 9 2 5 1014.7 1014.7 -
26/08:00am 18.3 - - - - ESE 6 11 3 6 1014.5 1014.5 -
26/07:30am 18.3 - - - - ESE 4 7 2 4 1014.1 1014.1 -
26/07:00am 18.2 - - - - SE 4 6 2 3 1013.7 1013.7 -
26/06:30am 17.8 - - - - S 6 7 3 4 1013.8 1013.8 -
26/06:00am 17.9 - - - - SSW 6 9 3 5 1013.7 1013.7 -
26/05:30am 17.8 - - - - SW 4 6 2 3 1013.5 1013.5 -
26/05:00am 18.2 - - - - CALM 0 2 0 1 1013.5 1013.5 -
26/04:30am 18.2 - - - - SSE 4 9 2 5 1013.6 1013.6 -
26/04:00am 18.0 - - - - SW 2 4 1 2 1013.7 1013.7 -
26/03:30am 17.9 - - - - SW 4 6 2 3 1014.0 1014.0 -
26/03:00am 18.2 - - - - S 9 9 5 5 1013.9 1013.9 -
26/02:30am 18.0 - - - - S 7 9 4 5 1014.3 1014.3 -
26/02:00am 18.1 - - - - SSW 9 11 5 6 1014.4 1014.4 -
26/01:30am 18.2 - - - - SSW 9 13 5 7 1014.4 1014.4 -
26/01:00am 18.3 - - - - SW 6 9 3 5 1014.6 1014.6 -
26/12:30am 18.3 - - - - SSW 6 9 3 5 1014.5 1014.5 -
26/12:00am 18.3 - - - - SSW 7 11 4 6 1015.0 1015.0 -
 
Date/Time
EDT
Temp
°C
App
Temp
°C
Dew
Point
°C
Rel
Hum
%
Delta-T
°C
Wind Press
QNH
hPa
Press
MSL
hPa
Rain since
9am
mm
Dir  Spd
km/h
Gust
km/h
Spd
kts
Gust
kts
25/11:30pm 18.0 - - - - SSW 9 13 5 7 1014.9 1014.9 -
25/11:00pm 18.2 - - - - SSW 11 15 6 8 1014.9 1014.9 -
25/10:30pm 18.4 - - - - S 9 17 5 9 1015.0 1015.0 -
25/10:00pm 18.4 - - - - SSW 11 15 6 8 1014.7 1014.7 -
25/09:30pm 18.4 - - - - WSW 11 15 6 8 1014.6 1014.6 -
25/09:00pm 18.3 - - - - SW 7 13 4 7 1014.2 1014.2 -
25/08:30pm 18.3 - - - - SW 9 13 5 7 1013.9 1013.9 -
25/08:00pm 18.4 - - - - SW 17 20 9 11 1013.4 1013.4 -
25/07:30pm 18.8 - - - - SW 13 19 7 10 1013.4 1013.4 -
25/07:00pm 18.8 - - - - SW 15 22 8 12 1013.1 1013.1 -
25/06:30pm 18.8 - - - - SW 15 20 8 11 1012.9 1012.9 -
25/06:00pm 19.0 - - - - SW 17 22 9 12 1012.7 1012.7 -
25/05:30pm 19.0 - - - - SW 22 28 12 15 1012.6 1012.6 -

Other Formats:

Comma delimited format used in spreadsheet applications
http://www.bom.gov.au/fwo/IDV60801/IDV60801.95826.axf

JavaScript Object Notation format (JSON) in row-major order
http://www.bom.gov.au/fwo/IDV60801/IDV60801.95826.json